sensor_id;sensor_type;location;lat;lon;timestamp;pressure;altitude;pressure_sealevel;temperature;humidity
12178;BME280;6152;48.728;9.256;2022-08-19T00:01:28;96647.16;;;20.59;94.90
12178;BME280;6152;48.728;9.256;2022-08-19T00:03:58;96637.25;;;20.61;95.22
12178;BME280;6152;48.728;9.256;2022-08-19T00:06:26;96636.91;;;20.56;95.71
12178;BME280;6152;48.728;9.256;2022-08-19T00:08:53;96636.41;;;20.61;95.32
12178;BME280;6152;48.728;9.256;2022-08-19T00:11:20;96643.53;;;20.69;94.30
12178;BME280;6152;48.728;9.256;2022-08-19T00:13:46;96646.31;;;20.59;95.80
12178;BME280;6152;48.728;9.256;2022-08-19T00:16:14;96652.78;;;20.56;96.68
12178;BME280;6152;48.728;9.256;2022-08-19T00:18:40;96654.59;;;20.56;97.26
12178;BME280;6152;48.728;9.256;2022-08-19T00:21:07;96649.78;;;20.51;98.28
12178;BME280;6152;48.728;9.256;2022-08-19T00:23:33;96650.63;;;20.52;98.44
12178;BME280;6152;48.728;9.256;2022-08-19T00:26:00;96650.13;;;20.48;98.74
12178;BME280;6152;48.728;9.256;2022-08-19T00:28:26;96644.84;;;20.40;99.91
12178;BME280;6152;48.728;9.256;2022-08-19T00:30:53;96641.03;;;20.43;100.00
12178;BME280;6152;48.728;9.256;2022-08-19T00:33:19;96638.41;;;20.43;100.00
12178;BME280;6152;48.728;9.256;2022-08-19T00:35:45;96629.16;;;20.39;100.00
12178;BME280;6152;48.728;9.256;2022-08-19T00:38:12;96617.44;;;20.33;100.00
12178;BME280;6152;48.728;9.256;2022-08-19T00:40:38;96620.72;;;20.35;100.00
12178;BME280;6152;48.728;9.256;2022-08-19T00:43:10;96620.06;;;20.33;100.00
12178;BME280;6152;48.728;9.256;2022-08-19T00:45:36;96623.66;;;20.24;100.00
12178;BME280;6152;48.728;9.256;2022-08-19T00:48:03;96622.34;;;20.20;100.00
12178;BME280;6152;48.728;9.256;2022-08-19T00:50:30;96621.66;;;20.18;100.00
12178;BME280;6152;48.728;9.256;2022-08-19T00:52:57;96633.25;;;20.25;100.00
12178;BME280;6152;48.728;9.256;2022-08-19T00:55:26;96634.56;;;20.21;100.00
12178;BME280;6152;48.728;9.256;2022-08-19T00:58:03;96631.41;;;20.17;100.00
12178;BME280;6152;48.728;9.256;2022-08-19T01:00:32;96625.13;;;20.10;100.00
12178;BME280;6152;48.728;9.256;2022-08-19T01:03:01;96634.22;;;20.08;100.00
12178;BME280;6152;48.728;9.256;2022-08-19T01:05:28;96628.44;;;20.12;100.00
12178;BME280;6152;48.728;9.256;2022-08-19T01:07:58;96637.34;;;20.11;100.00
12178;BME280;6152;48.728;9.256;2022-08-19T01:10:27;96636.53;;;20.11;100.00
12178;BME280;6152;48.728;9.256;2022-08-19T01:12:56;96630.56;;;20.01;100.00
12178;BME280;6152;48.728;9.256;2022-08-19T01:15:30;96621.16;;;19.98;100.00
12178;BME280;6152;48.728;9.256;2022-08-19T01:17:58;96620.47;;;19.96;100.00
12178;BME280;6152;48.728;9.256;2022-08-19T01:20:25;96628.91;;;20.00;100.00
12178;BME280;6152;48.728;9.256;2022-08-19T01:23:02;96622.31;;;19.96;100.00
12178;BME280;6152;48.728;9.256;2022-08-19T01:25:47;96615.72;;;19.92;100.00
12178;BME280;6152;48.728;9.256;2022-08-19T01:28:24;96614.91;;;19.99;100.00
12178;BME280;6152;48.728;9.256;2022-08-19T01:30:52;96610.25;;;20.01;100.00
12178;BME280;6152;48.728;9.256;2022-08-19T01:33:19;96616.72;;;19.99;100.00
12178;BME280;6152;48.728;9.256;2022-08-19T01:35:46;96614.06;;;19.99;100.00
12178;BME280;6152;48.728;9.256;2022-08-19T01:38:25;96613.06;;;20.00;100.00
12178;BME280;6152;48.728;9.256;2022-08-19T01:40:51;96620.00;;;20.01;100.00
12178;BME280;6152;48.728;9.256;2022-08-19T01:43:18;96618.03;;;20.03;100.00
12178;BME280;6152;48.728;9.256;2022-08-19T01:45:45;96619.66;;;20.04;100.00
12178;BME280;6152;48.728;9.256;2022-08-19T01:48:12;96614.38;;;20.04;100.00
12178;BME280;6152;48.728;9.256;2022-08-19T01:50:39;96611.59;;;20.05;100.00
12178;BME280;6152;48.728;9.256;2022-08-19T01:53:09;96611.25;;;20.08;100.00
12178;BME280;6152;48.728;9.256;2022-08-19T01:55:40;96607.63;;;20.01;100.00
12178;BME280;6152;48.728;9.256;2022-08-19T01:58:10;96610.44;;;20.08;100.00
12178;BME280;6152;48.728;9.256;2022-08-19T02:00:37;96616.72;;;19.99;100.00
12178;BME280;6152;48.728;9.256;2022-08-19T02:03:04;96605.31;;;19.98;100.00
12178;BME280;6152;48.728;9.256;2022-08-19T02:05:30;96610.75;;;20.05;100.00
12178;BME280;6152;48.728;9.256;2022-08-19T02:07:57;96611.09;;;20.02;100.00
12178;BME280;6152;48.728;9.256;2022-08-19T02:10:24;96608.78;;;19.99;100.00
12178;BME280;6152;48.728;9.256;2022-08-19T02:12:51;96607.78;;;20.00;100.00
12178;BME280;6152;48.728;9.256;2022-08-19T02:15:18;96611.56;;;19.97;100.00
12178;BME280;6152;48.728;9.256;2022-08-19T02:17:45;96612.75;;;19.95;100.00
12178;BME280;6152;48.728;9.256;2022-08-19T02:20:12;96611.75;;;19.96;100.00
12178;BME280;6152;48.728;9.256;2022-08-19T02:22:40;96613.72;;;19.94;100.00
12178;BME280;6152;48.728;9.256;2022-08-19T02:25:09;96621.50;;;19.95;100.00
12178;BME280;6152;48.728;9.256;2022-08-19T02:27:35;96619.66;;;19.88;100.00
12178;BME280;6152;48.728;9.256;2022-08-19T02:30:01;96630.22;;;19.88;100.00
12178;BME280;6152;48.728;9.256;2022-08-19T02:32:28;96625.78;;;19.88;100.00
12178;BME280;6152;48.728;9.256;2022-08-19T02:34:56;96623.63;;;19.92;100.00
12178;BME280;6152;48.728;9.256;2022-08-19T02:37:22;96622.78;;;19.83;100.00
12178;BME280;6152;48.728;9.256;2022-08-19T02:40:07;96614.69;;;19.85;100.00
12178;BME280;6152;48.728;9.256;2022-08-19T02:42:33;96603.63;;;19.81;100.00
12178;BME280;6152;48.728;9.256;2022-08-19T02:45:00;96600.53;;;19.86;100.00
12178;BME280;6152;48.728;9.256;2022-08-19T02:47:26;96606.44;;;19.80;100.00
12178;BME280;6152;48.728;9.256;2022-08-19T02:49:52;96608.09;;;19.81;100.00
12178;BME280;6152;48.728;9.256;2022-08-19T02:52:18;96606.44;;;19.80;100.00
12178;BME280;6152;48.728;9.256;2022-08-19T02:54:44;96599.19;;;19.82;100.00
12178;BME280;6152;48.728;9.256;2022-08-19T02:57:11;96600.13;;;19.73;100.00
12178;BME280;6152;48.728;9.256;2022-08-19T02:59:37;96599.13;;;19.65;100.00
12178;BME280;6152;48.728;9.256;2022-08-19T03:02:03;96596.19;;;19.69;100.00
12178;BME280;6152;48.728;9.256;2022-08-19T03:04:29;96601.13;;;19.63;100.00
12178;BME280;6152;48.728;9.256;2022-08-19T03:06:55;96607.69;;;19.59;100.00
12178;BME280;6152;48.728;9.256;2022-08-19T03:09:22;96613.31;;;19.56;100.00
12178;BME280;6152;48.728;9.256;2022-08-19T03:11:48;96610.34;;;19.59;100.00
12178;BME280;6152;48.728;9.256;2022-08-19T03:14:16;96611.00;;;19.53;100.00
12178;BME280;6152;48.728;9.256;2022-08-19T03:16:49;96618.72;;;19.47;100.00
12178;BME280;6152;48.728;9.256;2022-08-19T03:19:17;96622.53;;;19.44;100.00
12178;BME280;6152;48.728;9.256;2022-08-19T03:21:45;96625.81;;;19.46;100.00
12178;BME280;6152;48.728;9.256;2022-08-19T03:24:12;96623.66;;;19.42;100.00
12178;BME280;6152;48.728;9.256;2022-08-19T03:26:42;96631.41;;;19.43;100.00
12178;BME280;6152;48.728;9.256;2022-08-19T03:29:08;96632.69;;;19.39;100.00
12178;BME280;6152;48.728;9.256;2022-08-19T03:31:36;96619.13;;;19.34;100.00
12178;BME280;6152;48.728;9.256;2022-08-19T03:34:03;96615.50;;;19.27;100.00
12178;BME280;6152;48.728;9.256;2022-08-19T03:36:29;96619.97;;;19.35;100.00
12178;BME280;6152;48.728;9.256;2022-08-19T03:38:58;96618.13;;;19.27;100.00
12178;BME280;6152;48.728;9.256;2022-08-19T03:41:28;96618.59;;;19.23;100.00
12178;BME280;6152;48.728;9.256;2022-08-19T03:43:55;96621.69;;;19.18;100.00
12178;BME280;6152;48.728;9.256;2022-08-19T03:46:24;96615.91;;;19.14;100.00
12178;BME280;6152;48.728;9.256;2022-08-19T03:48:52;96609.47;;;19.17;100.00
12178;BME280;6152;48.728;9.256;2022-08-19T03:51:23;96620.03;;;19.17;100.00
12178;BME280;6152;48.728;9.256;2022-08-19T03:53:51;96621.88;;;19.16;100.00
12178;BME280;6152;48.728;9.256;2022-08-19T03:56:18;96623.38;;;19.19;100.00
12178;BME280;6152;48.728;9.256;2022-08-19T03:58:44;96621.06;;;19.24;100.00
12178;BME280;6152;48.728;9.256;2022-08-19T04:01:17;96628.31;;;19.22;100.00
12178;BME280;6152;48.728;9.256;2022-08-19T04:03:44;96622.03;;;19.15;100.00
12178;BME280;6152;48.728;9.256;2022-08-19T04:06:24;96627.94;;;19.09;100.00
12178;BME280;6152;48.728;9.256;2022-08-19T04:08:53;96631.91;;;19.13;100.00
12178;BME280;6152;48.728;9.256;2022-08-19T04:11:26;96625.31;;;19.17;100.00
12178;BME280;6152;48.728;9.256;2022-08-19T04:13:53;96629.94;;;19.15;100.00
12178;BME280;6152;48.728;9.256;2022-08-19T04:16:20;96630.25;;;19.12;100.00
12178;BME280;6152;48.728;9.256;2022-08-19T04:18:48;96625.28;;;19.09;100.00
12178;BME280;6152;48.728;9.256;2022-08-19T04:21:20;96622.66;;;19.09;100.00
12178;BME280;6152;48.728;9.256;2022-08-19T04:23:48;96626.59;;;19.05;100.00
12178;BME280;6152;48.728;9.256;2022-08-19T04:26:20;96622.66;;;19.09;100.00
12178;BME280;6152;48.728;9.256;2022-08-19T04:28:47;96626.94;;;19.10;100.00
12178;BME280;6152;48.728;9.256;2022-08-19T04:31:23;96625.13;;;19.10;100.00
12178;BME280;6152;48.728;9.256;2022-08-19T04:33:54;96617.69;;;19.06;100.00
12178;BME280;6152;48.728;9.256;2022-08-19T04:36:24;96614.38;;;19.04;100.00
12178;BME280;6152;48.728;9.256;2022-08-19T04:38:58;96615.66;;;19.00;100.00
12178;BME280;6152;48.728;9.256;2022-08-19T04:41:25;96623.94;;;19.05;100.00
12178;BME280;6152;48.728;9.256;2022-08-19T04:44:10;96613.03;;;19.00;100.00
12178;BME280;6152;48.728;9.256;2022-08-19T04:46:36;96621.94;;;18.99;100.00
12178;BME280;6152;48.728;9.256;2022-08-19T04:49:05;96619.97;;;19.01;100.00
12178;BME280;6152;48.728;9.256;2022-08-19T04:51:33;96621.94;;;18.99;100.00
12178;BME280;6152;48.728;9.256;2022-08-19T04:54:01;96616.69;;;19.07;100.00
12178;BME280;6152;48.728;9.256;2022-08-19T04:56:27;96612.44;;;19.06;100.00
12178;BME280;6152;48.728;9.256;2022-08-19T04:58:55;96619.97;;;19.01;100.00
12178;BME280;6152;48.728;9.256;2022-08-19T05:01:27;96623.28;;;19.03;100.00
12178;BME280;6152;48.728;9.256;2022-08-19T05:03:58;96621.94;;;18.99;100.00
12178;BME280;6152;48.728;9.256;2022-08-19T05:06:26;96625.75;;;19.04;100.00
12178;BME280;6152;48.728;9.256;2022-08-19T05:08:52;96643.97;;;19.15;100.00
12178;BME280;6152;48.728;9.256;2022-08-19T05:11:22;96648.03;;;19.10;100.00
12178;BME280;6152;48.728;9.256;2022-08-19T05:13:48;96653.16;;;19.11;100.00
12178;BME280;6152;48.728;9.256;2022-08-19T05:16:17;96663.84;;;19.10;100.00
12178;BME280;6152;48.728;9.256;2022-08-19T05:18:43;96666.22;;;19.13;100.00
12178;BME280;6152;48.728;9.256;2022-08-19T05:21:29;96682.03;;;19.13;100.00
12178;BME280;6152;48.728;9.256;2022-08-19T05:24:14;96697.25;;;19.19;100.00
12178;BME280;6152;48.728;9.256;2022-08-19T05:26:43;96702.13;;;19.14;100.00
12178;BME280;6152;48.728;9.256;2022-08-19T05:29:13;96704.47;;;19.17;100.00
12178;BME280;6152;48.728;9.256;2022-08-19T05:31:40;96708.44;;;19.21;100.00
12178;BME280;6152;48.728;9.256;2022-08-19T05:34:07;96719.00;;;19.21;100.00
12178;BME280;6152;48.728;9.256;2022-08-19T05:36:37;96724.78;;;19.25;100.00
12178;BME280;6152;48.728;9.256;2022-08-19T05:39:07;96731.69;;;19.17;100.00
12178;BME280;6152;48.728;9.256;2022-08-19T05:41:33;96730.19;;;19.15;100.00
12178;BME280;6152;48.728;9.256;2022-08-19T05:44:03;96734.16;;;19.19;100.00
12178;BME280;6152;48.728;9.256;2022-08-19T05:46:32;96720.66;;;19.22;100.00
12178;BME280;6152;48.728;9.256;2022-08-19T05:48:58;96719.69;;;19.23;100.00
12178;BME280;6152;48.728;9.256;2022-08-19T05:51:25;96715.53;;;19.21;100.00
12178;BME280;6152;48.728;9.256;2022-08-19T05:53:51;96719.38;;;19.26;100.00
12178;BME280;6152;48.728;9.256;2022-08-19T05:56:18;96719.69;;;19.23;100.00
12178;BME280;6152;48.728;9.256;2022-08-19T05:58:45;96723.81;;;19.26;100.00
12178;BME280;6152;48.728;9.256;2022-08-19T06:01:16;96714.94;;;19.27;100.00
12178;BME280;6152;48.728;9.256;2022-08-19T06:03:44;96720.66;;;19.22;100.00
12178;BME280;6152;48.728;9.256;2022-08-19T06:06:12;96722.34;;;19.31;100.00
12178;BME280;6152;48.728;9.256;2022-08-19T06:08:39;96726.19;;;19.37;100.00
12178;BME280;6152;48.728;9.256;2022-08-19T06:13:41;96728.25;;;19.25;100.00
12178;BME280;6152;48.728;9.256;2022-08-19T06:16:08;96724.34;;;19.29;100.00
12178;BME280;6152;48.728;9.256;2022-08-19T06:18:34;96726.59;;;19.24;100.00
12178;BME280;6152;48.728;9.256;2022-08-19T06:21:00;96724.13;;;19.23;100.00
12178;BME280;6152;48.728;9.256;2022-08-19T06:23:29;96724.59;;;19.18;100.00
12178;BME280;6152;48.728;9.256;2022-08-19T06:25:56;96726.72;;;19.14;100.00
12178;BME280;6152;48.728;9.256;2022-08-19T06:28:22;96731.16;;;19.14;100.00
12178;BME280;6152;48.728;9.256;2022-08-19T06:30:49;96732.50;;;19.18;100.00
12178;BME280;6152;48.728;9.256;2022-08-19T06:33:17;96732.50;;;19.18;100.00
12178;BME280;6152;48.728;9.256;2022-08-19T06:35:43;96735.09;;;19.10;100.00
12178;BME280;6152;48.728;9.256;2022-08-19T06:38:09;96738.72;;;19.09;100.00
12178;BME280;6152;48.728;9.256;2022-08-19T06:40:36;96734.59;;;19.06;100.00
12178;BME280;6152;48.728;9.256;2022-08-19T06:43:03;96733.75;;;19.06;100.00
12178;BME280;6152;48.728;9.256;2022-08-19T06:45:30;96726.50;;;19.08;100.00
12178;BME280;6152;48.728;9.256;2022-08-19T06:47:56;96733.75;;;19.06;100.00
12178;BME280;6152;48.728;9.256;2022-08-19T06:50:25;96739.56;;;19.09;100.00
12178;BME280;6152;48.728;9.256;2022-08-19T06:52:51;96734.06;;;19.03;100.00
12178;BME280;6152;48.728;9.256;2022-08-19T06:55:17;96738.72;;;19.09;100.00
12178;BME280;6152;48.728;9.256;2022-08-19T06:57:43;96741.19;;;19.10;100.00
12178;BME280;6152;48.728;9.256;2022-08-19T07:00:12;96734.16;;;19.19;100.00
12178;BME280;6152;48.728;9.256;2022-08-19T07:02:44;96745.03;;;19.16;100.00
12178;BME280;6152;48.728;9.256;2022-08-19T07:05:10;96741.41;;;19.17;100.00
12178;BME280;6152;48.728;9.256;2022-08-19T07:07:37;96753.16;;;19.23;100.00
12178;BME280;6152;48.728;9.256;2022-08-19T07:10:04;96742.75;;;19.21;100.00
12178;BME280;6152;48.728;9.256;2022-08-19T07:12:31;96747.72;;;19.24;100.00
12178;BME280;6152;48.728;9.256;2022-08-19T07:15:01;96745.56;;;19.20;100.00
12178;BME280;6152;48.728;9.256;2022-08-19T07:17:28;96751.88;;;19.27;100.00
12178;BME280;6152;48.728;9.256;2022-08-19T07:19:54;96745.75;;;19.26;100.00
12178;BME280;6152;48.728;9.256;2022-08-19T07:22:21;96738.50;;;19.28;100.00
12178;BME280;6152;48.728;9.256;2022-08-19T07:24:51;96735.22;;;19.26;100.00
12178;BME280;6152;48.728;9.256;2022-08-19T07:27:18;96740.81;;;19.31;100.00
12178;BME280;6152;48.728;9.256;2022-08-19T07:29:44;96747.44;;;19.27;100.00
12178;BME280;6152;48.728;9.256;2022-08-19T07:32:11;96749.38;;;19.25;100.00
12178;BME280;6152;48.728;9.256;2022-08-19T07:34:38;96752.47;;;19.21;100.00
12178;BME280;6152;48.728;9.256;2022-08-19T07:37:05;96747.81;;;19.14;100.00
12178;BME280;6152;48.728;9.256;2022-08-19T07:39:35;96751.53;;;19.04;100.00
12178;BME280;6152;48.728;9.256;2022-08-19T07:42:04;96756.16;;;19.02;100.00
12178;BME280;6152;48.728;9.256;2022-08-19T07:44:33;96753.59;;;18.92;100.00
12178;BME280;6152;48.728;9.256;2022-08-19T07:47:00;96748.72;;;18.80;100.00
12178;BME280;6152;48.728;9.256;2022-08-19T07:49:26;96753.31;;;18.78;100.00
12178;BME280;6152;48.728;9.256;2022-08-19T07:52:06;96748.34;;;18.75;100.00
12178;BME280;6152;48.728;9.256;2022-08-19T07:54:35;96759.50;;;18.69;100.00
12178;BME280;6152;48.728;9.256;2022-08-19T07:57:02;96754.69;;;18.64;100.00
12178;BME280;6152;48.728;9.256;2022-08-19T07:59:29;96750.81;;;18.58;100.00
12178;BME280;6152;48.728;9.256;2022-08-19T08:01:57;96752.19;;;18.62;100.00
12178;BME280;6152;48.728;9.256;2022-08-19T08:04:25;96753.53;;;18.66;100.00
12178;BME280;6152;48.728;9.256;2022-08-19T08:07:10;96765.66;;;18.59;100.00
12178;BME280;6152;48.728;9.256;2022-08-19T08:09:54;96769.59;;;18.55;100.00
12178;BME280;6152;48.728;9.256;2022-08-19T08:12:32;96765.06;;;18.48;100.00
12178;BME280;6152;48.728;9.256;2022-08-19T08:15:03;96774.50;;;18.50;100.00
12178;BME280;6152;48.728;9.256;2022-08-19T08:17:31;96766.84;;;18.47;100.00
12178;BME280;6152;48.728;9.256;2022-08-19T08:19:57;96766.16;;;18.45;100.00
12178;BME280;6152;48.728;9.256;2022-08-19T08:22:24;96761.00;;;18.53;100.00
12178;BME280;6152;48.728;9.256;2022-08-19T08:25:13;96767.03;;;18.63;100.00
12178;BME280;6152;48.728;9.256;2022-08-19T08:27:40;96762.16;;;18.69;100.00
12178;BME280;6152;48.728;9.256;2022-08-19T08:30:15;96764.63;;;18.70;100.00
12178;BME280;6152;48.728;9.256;2022-08-19T08:32:42;96767.47;;;18.77;100.00
12178;BME280;6152;48.728;9.256;2022-08-19T08:35:11;96770.81;;;18.79;100.00
12178;BME280;6152;48.728;9.256;2022-08-19T08:37:38;96764.22;;;18.83;100.00
12178;BME280;6152;48.728;9.256;2022-08-19T08:40:16;96764.75;;;18.86;100.00
12178;BME280;6152;48.728;9.256;2022-08-19T08:42:51;96760.09;;;18.80;100.00
12178;BME280;6152;48.728;9.256;2022-08-19T08:45:21;96764.53;;;18.80;100.00
12178;BME280;6152;48.728;9.256;2022-08-19T08:47:50;96755.44;;;18.74;100.00
12178;BME280;6152;48.728;9.256;2022-08-19T08:50:34;96766.94;;;18.91;100.00
12178;BME280;6152;48.728;9.256;2022-08-19T08:53:09;96754.88;;;19.06;100.00
12178;BME280;6152;48.728;9.256;2022-08-19T08:55:37;96767.50;;;19.20;100.00
12178;BME280;6152;48.728;9.256;2022-08-19T08:58:12;96772.16;;;19.26;100.00
12178;BME280;6152;48.728;9.256;2022-08-19T09:00:45;96772.56;;;19.39;100.00
12178;BME280;6152;48.728;9.256;2022-08-19T09:03:26;96777.47;;;19.34;100.00
12178;BME280;6152;48.728;9.256;2022-08-19T09:06:04;96773.53;;;19.38;100.00
12178;BME280;6152;48.728;9.256;2022-08-19T09:11:15;96779.22;;;19.43;100.00
12178;BME280;6152;48.728;9.256;2022-08-19T09:16:39;96785.16;;;19.45;100.00
12178;BME280;6152;48.728;9.256;2022-08-19T09:19:07;96788.13;;;19.42;100.00
12178;BME280;6152;48.728;9.256;2022-08-19T09:21:34;96785.09;;;19.37;100.00
12178;BME280;6152;48.728;9.256;2022-08-19T09:24:02;96786.06;;;19.36;100.00
12178;BME280;6152;48.728;9.256;2022-08-19T09:26:28;96785.38;;;19.34;100.00
12178;BME280;6152;48.728;9.256;2022-08-19T09:28:55;96785.38;;;19.34;100.00
12178;BME280;6152;48.728;9.256;2022-08-19T09:31:25;96784.41;;;19.35;100.00
12178;BME280;6152;48.728;9.256;2022-08-19T09:33:53;96787.75;;;19.37;100.00
12178;BME280;6152;48.728;9.256;2022-08-19T09:36:24;96792.50;;;19.34;100.00
12178;BME280;6152;48.728;9.256;2022-08-19T09:38:51;96790.38;;;19.37;100.00
12178;BME280;6152;48.728;9.256;2022-08-19T09:41:21;96792.31;;;19.35;100.00
12178;BME280;6152;48.728;9.256;2022-08-19T09:43:49;96790.66;;;19.34;100.00
12178;BME280;6152;48.728;9.256;2022-08-19T09:46:19;96791.44;;;19.27;100.00
12178;BME280;6152;48.728;9.256;2022-08-19T09:48:47;96796.94;;;19.33;100.00
12178;BME280;6152;48.728;9.256;2022-08-19T09:51:21;96794.97;;;19.35;100.00
12178;BME280;6152;48.728;9.256;2022-08-19T09:53:48;96802.28;;;19.41;100.00
12178;BME280;6152;48.728;9.256;2022-08-19T09:56:20;96802.28;;;19.41;100.00
12178;BME280;6152;48.728;9.256;2022-08-19T09:58:47;96805.91;;;19.40;100.00
12178;BME280;6152;48.728;9.256;2022-08-19T10:01:22;96802.88;;;19.35;100.00
12178;BME280;6152;48.728;9.256;2022-08-19T10:03:51;96804.31;;;19.47;100.00
12178;BME280;6152;48.728;9.256;2022-08-19T10:06:25;96798.88;;;19.49;100.00
12178;BME280;6152;48.728;9.256;2022-08-19T10:08:52;96802.94;;;19.61;100.00
12178;BME280;6152;48.728;9.256;2022-08-19T10:11:19;96804.03;;;19.58;100.00
12178;BME280;6152;48.728;9.256;2022-08-19T10:13:47;96802.34;;;19.49;100.00
12178;BME280;6152;48.728;9.256;2022-08-19T10:16:17;96808.28;;;19.51;100.00
12178;BME280;6152;48.728;9.256;2022-08-19T10:18:45;96801.06;;;19.53;100.00
12178;BME280;6152;48.728;9.256;2022-08-19T10:21:15;96806.66;;;19.50;100.00
12178;BME280;6152;48.728;9.256;2022-08-19T10:23:45;96813.56;;;19.51;100.00
12178;BME280;6152;48.728;9.256;2022-08-19T10:26:14;96811.94;;;19.50;100.00
12178;BME280;6152;48.728;9.256;2022-08-19T10:28:41;96812.25;;;19.47;100.00
12178;BME280;6152;48.728;9.256;2022-08-19T10:31:11;96803.50;;;19.47;100.00
12178;BME280;6152;48.728;9.256;2022-08-19T10:33:38;96802.53;;;19.48;100.00
12178;BME280;6152;48.728;9.256;2022-08-19T10:36:12;96798.66;;;19.42;100.00
12178;BME280;6152;48.728;9.256;2022-08-19T10:38:41;96798.03;;;19.48;100.00
12178;BME280;6152;48.728;9.256;2022-08-19T10:41:14;96793.06;;;19.45;100.00
12178;BME280;6152;48.728;9.256;2022-08-19T10:43:41;96789.16;;;19.49;100.00
12178;BME280;6152;48.728;9.256;2022-08-19T10:46:13;96788.56;;;19.63;100.00
12178;BME280;6152;48.728;9.256;2022-08-19T10:48:41;96791.94;;;19.74;100.00
12178;BME280;6152;48.728;9.256;2022-08-19T10:51:07;96792.50;;;19.85;100.00
12178;BME280;6152;48.728;9.256;2022-08-19T10:53:52;96785.59;;;20.00;100.00
12178;BME280;6152;48.728;9.256;2022-08-19T10:56:19;96786.47;;;20.09;100.00
12178;BME280;6152;48.728;9.256;2022-08-19T10:59:05;96791.94;;;20.15;100.00
12178;BME280;6152;48.728;9.256;2022-08-19T11:01:32;96786.34;;;20.18;100.00
12178;BME280;6152;48.728;9.256;2022-08-19T11:04:01;96783.56;;;20.20;100.00
12178;BME280;6152;48.728;9.256;2022-08-19T11:06:28;96782.22;;;20.16;100.00
12178;BME280;6152;48.728;9.256;2022-08-19T11:08:56;96782.34;;;20.14;100.00
12178;BME280;6152;48.728;9.256;2022-08-19T11:11:22;96791.25;;;20.05;100.00
12178;BME280;6152;48.728;9.256;2022-08-19T11:13:49;96792.03;;;19.98;100.00
12178;BME280;6152;48.728;9.256;2022-08-19T11:16:18;96790.69;;;19.94;100.00
12178;BME280;6152;48.728;9.256;2022-08-19T11:18:47;96792.69;;;19.92;100.00
12178;BME280;6152;48.728;9.256;2022-08-19T11:23:48;96795.97;;;19.86;100.00
12178;BME280;6152;48.728;9.256;2022-08-19T11:26:16;96791.09;;;19.73;100.00
12178;BME280;6152;48.728;9.256;2022-08-19T11:28:43;96800.75;;;19.56;100.00
12178;BME280;6152;48.728;9.256;2022-08-19T11:31:15;96803.94;;;19.42;100.00
12178;BME280;6152;48.728;9.256;2022-08-19T11:33:42;96805.75;;;19.24;100.00
12178;BME280;6152;48.728;9.256;2022-08-19T11:36:09;96801.09;;;19.18;100.00
12178;BME280;6152;48.728;9.256;2022-08-19T11:38:35;96794.22;;;19.25;100.00
12178;BME280;6152;48.728;9.256;2022-08-19T11:41:04;96794.41;;;19.24;100.00
12178;BME280;6152;48.728;9.256;2022-08-19T11:43:31;96799.41;;;19.09;100.00
12178;BME280;6152;48.728;9.256;2022-08-19T11:45:58;96798.81;;;18.97;100.00
12178;BME280;6152;48.728;9.256;2022-08-19T11:48:24;96785.16;;;19.02;100.00
12178;BME280;6152;48.728;9.256;2022-08-19T11:50:53;96789.19;;;19.14;100.00
12178;BME280;6152;48.728;9.256;2022-08-19T11:53:21;96796.22;;;19.23;100.00
12178;BME280;6152;48.728;9.256;2022-08-19T11:55:48;96779.69;;;19.21;100.00
12178;BME280;6152;48.728;9.256;2022-08-19T11:58:15;96792.34;;;19.17;100.00
12178;BME280;6152;48.728;9.256;2022-08-19T12:00:42;96788.44;;;19.22;100.00
12178;BME280;6152;48.728;9.256;2022-08-19T12:03:12;96790.88;;;19.15;100.00
12178;BME280;6152;48.728;9.256;2022-08-19T12:05:39;96791.63;;;19.07;100.00
12178;BME280;6152;48.728;9.256;2022-08-19T12:08:06;96794.03;;;19.01;100.00
12178;BME280;6152;48.728;9.256;2022-08-19T12:10:33;96797.81;;;18.98;100.00
12178;BME280;6152;48.728;9.256;2022-08-19T12:13:00;96795.41;;;19.05;100.00
12178;BME280;6152;48.728;9.256;2022-08-19T12:15:27;96794.16;;;19.17;100.00
12178;BME280;6152;48.728;9.256;2022-08-19T12:17:55;96801.41;;;19.15;100.00
12178;BME280;6152;48.728;9.256;2022-08-19T12:20:23;96798.13;;;19.13;100.00
12178;BME280;6152;48.728;9.256;2022-08-19T12:22:50;96798.47;;;19.18;100.00
12178;BME280;6152;48.728;9.256;2022-08-19T12:25:16;96796.53;;;19.20;100.00
12178;BME280;6152;48.728;9.256;2022-08-19T12:27:42;96800.38;;;19.08;100.00
12178;BME280;6152;48.728;9.256;2022-08-19T12:30:10;96800.00;;;19.03;100.00
12178;BME280;6152;48.728;9.256;2022-08-19T12:32:37;96794.66;;;18.95;100.00
12178;BME280;6152;48.728;9.256;2022-08-19T12:35:04;96797.00;;;18.98;100.00
12178;BME280;6152;48.728;9.256;2022-08-19T12:37:31;96801.00;;;19.02;100.00
12178;BME280;6152;48.728;9.256;2022-08-19T12:39:58;96798.56;;;19.08;100.00
12178;BME280;6152;48.728;9.256;2022-08-19T12:42:25;96794.97;;;19.09;100.00
12178;BME280;6152;48.728;9.256;2022-08-19T12:44:51;96800.06;;;19.11;100.00
12178;BME280;6152;48.728;9.256;2022-08-19T12:47:18;96797.41;;;19.11;100.00
12178;BME280;6152;48.728;9.256;2022-08-19T12:49:44;96794.13;;;19.09;100.00
12178;BME280;6152;48.728;9.256;2022-08-19T12:52:12;96789.50;;;19.11;100.00
12178;BME280;6152;48.728;9.256;2022-08-19T12:54:42;96795.75;;;19.10;100.00
12178;BME280;6152;48.728;9.256;2022-08-19T12:57:10;96805.34;;;19.11;100.00
12178;BME280;6152;48.728;9.256;2022-08-19T12:59:37;96799.75;;;19.14;100.00
12178;BME280;6152;48.728;9.256;2022-08-19T13:02:05;96803.28;;;19.23;100.00
12178;BME280;6152;48.728;9.256;2022-08-19T13:04:32;96801.84;;;19.28;100.00
12178;BME280;6152;48.728;9.256;2022-08-19T13:07:01;96798.56;;;19.34;100.00
12178;BME280;6152;48.728;9.256;2022-08-19T13:09:27;96805.50;;;19.35;100.00
12178;BME280;6152;48.728;9.256;2022-08-19T13:11:53;96812.06;;;19.31;100.00
12178;BME280;6152;48.728;9.256;2022-08-19T13:14:19;96811.50;;;19.37;100.00
12178;BME280;6152;48.728;9.256;2022-08-19T13:16:45;96817.75;;;19.36;100.00
12178;BME280;6152;48.728;9.256;2022-08-19T13:19:12;96816.38;;;19.32;100.00